Airfield :
LOGIN :

Register | Disclaimer

   EN    FR    IT 

 










Legend :    VFR   Marginal VFR   IFR   Intensive IFR   Very Intensive IFR
Visi :
Ceiling :
>= 8 km
>= 3000ft
5 to 8 km
1000 to 3000 ft
1500m to 5 km
500 to 1000 ft
800 to 1500m
200 to 500 ft
< 800m
< 200 ft
Symbols :   Thunderstorms  Fog  Heavy snow  Heavy precipitations  Wind > 20 kt
SIGMETs :     Misc.  Thunderstorms  Icing  Turbulence  Mountain Waves  Volcanic Ashes






- Airport Elevation : 472 ft
- IATA code : GME


UMGG - Gomel

CURRENT METAR :
  • 171900Z 20005G08MPS CAVOK 07/02 Q1016 R28/D NOSIG

EXPIRED METARs :
  • 171800Z 20005G08MPS CAVOK 07/02 Q1016 R28/D NOSIG
  • 171700Z 19005G08MPS CAVOK 07/01 Q1016 R28/CLRD// NOSIG
  • 171630Z 19006G09MPS CAVOK 07/M00 Q1015 R28/D NOSIG

TAF TAF UMGG
Valid from the 17 at 18:00 until the 18 at 18:00 UTC


171656Z 1718/1818 20006MPS 6000 BKN010
TEMPO 1718/1721 21007G12MPS 2000 SHRA BKN004 BKN013CB
TEMPO 1721/1815 18004MPS 1200 SHRA BR BKN003 BKN015CB
BECMG 1815/1817 23006MPS
TEMPO 1815/1818 25006MPS 1200 SHRA BR BKN002 BKN013CB



MET'MAP, your aeronautical weather chart ! - Copyright ORBIFLY December 2007 - Disclaimer

ORBIFLY MET'MAP TEAM :

Programming & Development : Alexandra Zaïnal
Concept & original design : Baudouin d'Aumeries
Assistance for programming : Marc-Olivier Méhu
Technical & hardware support : Manuel Goepfert

Contact : metmap@orbifly.com




SOURCES & CREDITS :

   NOAA